Hlavní strana
METAR-TAF:

METAR-TAF

Letiště :

Juigalpa, Nikaragua

zeměpisná šířka: 12-06N, zeměpisná délka: 085-22W, výška: 90 m

Aktuální stav počasí

Zpráva byla vytvořena před 24 minutami, v 23:00 UTC
Východní vítr 6 kt
Teplota 29°C
Vlhkost vzduchu 66%
Tlak 1011 hPa
Viditelnost 10 km a více
Polojasno ve výšce 2000 ft

METAR: MNJU 152300Z 09006KT 9999 SCT020 29/22 Q1011

Čas: 17:24 (23:24 UTC)


TAF: chybějící

Stav a předpovědi počasí z více než 4 000 letišť (zprávy METAR a TAF).

Červené a žluté tečky na mapě představují dostupné meteorologické stanice.

Když kurzor umístíte na tečku, zobrazí se název stanice.

Pak kliknutím zobrazíte stav a předpověď počasí.

Chcete-li změnit mapu, kliknutím na zelené tlačítko se znaménkem +mapu přiblížíte, kliknutím na zelené tlačítko se znaménkem – mapu oddálíte a kliknutím na zelené šipky přejdete na sousední mapy.


METAR-TAF: